Time,TemperatureF,DewpointF,PressureIn,WindDirection,WindDirectionDegrees,WindSpeedMPH,WindSpeedGustMPH,Humidity,HourlyPrecipIn,Conditions,Clouds,dailyrainin,SoftwareType,DateUTC
2013-01-01 00:03:00,36.1,34.1,30.06,ENE,68,0.0,0.0,92,0.00,,,0.00,WSDL version 427,2013-01-01 06:03:00,
2013-01-01 00:08:00,36.1,34.1,30.06,ENE,68,0.0,0.0,92,0.00,,,0.00,WSDL version 427,2013-01-01 06:08:00,
2013-01-01 00:13:00,36.1,34.4,30.06,ENE,68,0.0,0.0,93,0.00,,,0.00,WSDL version 427,2013-01-01 06:13:00,
2013-01-01 00:18:00,36.1,34.4,30.06,ENE,68,0.0,0.0,93,0.00,,,0.00,WSDL version 427,2013-01-01 06:18:00,
2013-01-01 00:23:00,36.1,34.4,30.06,ENE,68,0.0,0.0,93,0.00,,,0.00,WSDL version 427,2013-01-01 06:23:00,
2013-01-01 00:28:00,36.1,34.4,30.06,ENE,68,0.0,0.0,93,0.00,,,0.00,WSDL version 427,2013-01-01 06:28:00,
2013-01-01 00:33:00,36.2,34.4,30.06,ENE,68,0.0,0.0,93,0.00,,,0.00,WSDL version 427,2013-01-01 06:33:00,
2013-01-01 00:38:00,36.3,34.8,30.06,ENE,68,0.0,0.0,94,0.00,,,0.00,WSDL version 427,2013-01-01 06:38:00,
2013-01-01 00:43:00,36.3,34.7,30.06,ENE,68,0.0,0.0,93,0.00,,,0.00,WSDL version 427,2013-01-01 06:43:00,
2013-01-01 00:48:00,36.3,34.5,30.06,NNW,333,0.0,0.9,93,0.00,,,0.00,WSDL version 427,2013-01-01 06:48:00,
2013-01-01 00:53:00,36.1,34.4,30.06,North,356,0.0,2.9,93,0.00,,,0.00,WSDL version 427,2013-01-01 06:53:00,
2013-01-01 00:58:00,36.1,34.4,30.06,NNE,16,0.1,3.4,93,0.00,,,0.00,WSDL version 427,2013-01-01 06:58:00,
2013-01-01 01:03:00,36.0,34.1,30.06,North,10,0.1,3.4,92,0.00,,,0.00,WSDL version 427,2013-01-01 07:03:00,
2013-01-01 01:08:00,35.9,33.9,30.06,NNE,16,0.0,2.9,92,0.00,,,0.00,WSDL version 427,2013-01-01 07:08:00,
2013-01-01 01:13:00,35.8,33.7,30.06,North,10,1.1,3.8,92,0.00,,,0.00,WSDL version 427,2013-01-01 07:13:00,
2013-01-01 01:18:00,35.8,33.7,30.06,NE,56,0.0,3.8,92,0.00,,,0.00,WSDL version 427,2013-01-01 07:18:00,
2013-01-01 01:23:00,35.6,33.6,30.06,NNE,26,0.0,0.0,92,0.00,,,0.00,WSDL version 427,2013-01-01 07:23:00,
2013-01-01 01:28:00,35.6,33.6,30.06,NE,34,0.0,3.8,92,0.00,,,0.00,WSDL version 427,2013-01-01 07:28:00,
2013-01-01 01:33:00,35.5,33.6,30.06,North,9,0.0,3.8,93,0.00,,,0.00,WSDL version 427,2013-01-01 07:33:00,
2013-01-01 01:38:00,35.4,33.7,30.06,North,9,0.3,3.8,93,0.00,,,0.00,WSDL version 427,2013-01-01 07:38:00,
2013-01-01 01:43:00,35.4,33.7,30.06,NNE,20,0.0,3.8,93,0.00,,,0.00,WSDL version 427,2013-01-01 07:43:00,
2013-01-01 01:48:00,35.4,33.7,30.06,NNE,20,1.4,4.3,93,0.00,,,0.00,WSDL version 427,2013-01-01 07:48:00,
2013-01-01 01:53:00,35.2,33.5,30.06,NNE,23,0.2,6.3,93,0.00,,,0.00,WSDL version 427,2013-01-01 07:53:00,
2013-01-01 01:58:00,35.2,33.7,30.06,NNE,27,3.0,6.3,94,0.00,,,0.00,WSDL version 427,2013-01-01 07:58:00,
2013-01-01 02:03:00,35.1,33.6,30.06,North,3,3.2,6.0,94,0.00,,,0.00,WSDL version 427,2013-01-01 08:03:00,
2013-01-01 02:08:00,35.1,33.6,30.03,NNE,20,2.9,6.0,94,0.00,,,0.00,WSDL version 427,2013-01-01 08:08:00,
2013-01-01 02:13:00,35.1,33.6,30.03,NNE,31,3.7,7.4,94,0.00,,,0.00,WSDL version 427,2013-01-01 08:13:00,
2013-01-01 02:18:00,35.1,33.6,30.03,NNW,345,3.1,7.4,94,0.00,,,0.00,WSDL version 427,2013-01-01 08:18:00,
2013-01-01 02:23:00,34.9,33.6,30.03,NNE,20,3.8,6.3,96,0.00,,,0.00,WSDL version 427,2013-01-01 08:23:00,
2013-01-01 02:28:00,34.9,33.7,30.03,North,10,4.3,8.1,96,0.00,,,0.00,WSDL version 427,2013-01-01 08:28:00,
2013-01-01 02:33:00,34.9,33.7,30.03,NNW,340,2.8,8.1,96,0.00,,,0.00,WSDL version 427,2013-01-01 08:33:00,
2013-01-01 02:38:00,34.9,33.7,30.06,NNE,16,4.9,9.4,96,0.00,,,0.00,WSDL version 427,2013-01-01 08:38:00,
2013-01-01 02:43:00,34.7,33.6,30.06,NNE,23,4.1,9.4,96,0.00,,,0.00,WSDL version 427,2013-01-01 08:43:00,
2013-01-01 02:48:00,34.6,33.5,30.06,NNE,20,5.0,8.9,96,0.00,,,0.00,WSDL version 427,2013-01-01 08:48:00,
2013-01-01 02:53:00,34.5,33.4,30.03,NE,40,3.9,8.9,96,0.00,,,0.00,WSDL version 427,2013-01-01 08:53:00,
2013-01-01 02:58:00,34.5,33.4,30.03,NE,35,4.1,5.8,96,0.00,,,0.00,WSDL version 427,2013-01-01 08:58:00,
2013-01-01 03:03:00,34.5,33.4,30.03,NNE,26,1.8,5.6,96,0.00,,,0.00,WSDL version 427,2013-01-01 09:03:00,
2013-01-01 03:08:00,34.5,33.4,30.06,NNE,30,4.3,6.7,96,0.00,,,0.00,WSDL version 427,2013-01-01 09:08:00,
2013-01-01 03:13:00,34.5,33.4,30.06,NE,42,3.0,6.7,96,0.00,,,0.00,WSDL version 427,2013-01-01 09:13:00,
2013-01-01 03:18:00,34.3,33.2,30.06,NE,38,5.1,8.5,96,0.00,,,0.00,WSDL version 427,2013-01-01 09:18:00,
2013-01-01 03:23:00,34.3,33.2,30.06,NNE,28,3.8,8.5,96,0.00,,,0.00,WSDL version 427,2013-01-01 09:23:00,
2013-01-01 03:28:00,34.3,33.2,30.06,NNE,25,3.1,6.9,96,0.00,,,0.00,WSDL version 427,2013-01-01 09:28:00,
2013-01-01 03:33:00,34.3,33.4,30.06,NNE,31,3.4,6.9,97,0.00,,,0.00,WSDL version 427,2013-01-01 09:33:00,
2013-01-01 03:38:00,34.3,33.5,30.06,NNE,32,4.6,6.0,97,0.00,,,0.00,WSDL version 427,2013-01-01 09:38:00,
2013-01-01 03:43:00,34.3,33.5,30.06,NE,55,4.6,6.0,97,0.00,,,0.00,WSDL version 427,2013-01-01 09:43:00,
2013-01-01 03:48:00,34.3,33.5,30.06,NE,45,4.3,6.5,97,0.00,,,0.00,WSDL version 427,2013-01-01 09:48:00,
2013-01-01 03:53:00,34.3,33.5,30.06,NE,39,3.9,6.5,97,0.00,,,0.00,WSDL version 427,2013-01-01 09:53:00,
2013-01-01 03:58:00,34.2,33.3,30.06,NE,38,4.5,10.5,97,0.00,,,0.00,WSDL version 427,2013-01-01 09:58:00,
2013-01-01 04:03:00,34.2,33.3,30.06,NE,56,4.3,10.5,97,0.00,,,0.00,WSDL version 427,2013-01-01 10:03:00,
2013-01-01 04:08:00,34.2,33.3,30.06,NE,38,4.7,9.4,97,0.00,,,0.00,WSDL version 427,2013-01-01 10:08:00,
2013-01-01 04:13:00,34.2,33.3,30.06,ENE,74,4.2,7.2,97,0.00,,,0.00,WSDL version 427,2013-01-01 10:13:00,
2013-01-01 04:18:00,34.1,33.2,30.06,NNE,33,4.3,6.5,97,0.00,,,0.00,WSDL version 427,2013-01-01 10:18:00,
2013-01-01 04:23:00,34.0,33.1,30.06,NE,45,3.9,6.5,97,0.00,,,0.00,WSDL version 427,2013-01-01 10:23:00,
2013-01-01 04:28:00,34.0,33.1,30.06,NE,45,1.4,5.6,97,0.00,,,0.00,WSDL version 427,2013-01-01 10:28:00,
2013-01-01 04:33:00,34.0,33.1,30.06,NE,53,3.3,7.4,97,0.00,,,0.00,WSDL version 427,2013-01-01 10:33:00,
2013-01-01 04:38:00,34.0,33.1,30.06,NE,52,3.1,7.4,97,0.00,,,0.00,WSDL version 427,2013-01-01 10:38:00,
2013-01-01 04:43:00,34.0,33.1,30.06,NE,55,2.3,5.8,97,0.00,,,0.00,WSDL version 427,2013-01-01 10:43:00,
2013-01-01 04:48:00,34.0,33.1,30.06,NE,47,2.8,5.8,97,0.00,,,0.00,WSDL version 427,2013-01-01 10:48:00,
2013-01-01 04:53:00,34.0,33.1,30.06,NE,41,3.4,6.0,97,0.00,,,0.00,WSDL version 427,2013-01-01 10:53:00,
2013-01-01 04:58:00,34.0,33.1,30.06,NNE,20,3.8,6.0,97,0.00,,,0.00,WSDL version 427,2013-01-01 10:58:00,
2013-01-01 05:03:00,34.0,33.1,30.06,NE,35,2.3,6.0,97,0.00,,,0.00,WSDL version 427,2013-01-01 11:03:00,
2013-01-01 05:08:00,34.0,33.1,30.09,NE,49,3.8,5.8,97,0.00,,,0.00,WSDL version 427,2013-01-01 11:08:00,
2013-01-01 05:13:00,34.0,33.1,30.09,NE,36,3.6,5.8,97,0.00,,,0.00,WSDL version 427,2013-01-01 11:13:00,
2013-01-01 05:18:00,34.0,33.1,30.09,NE,45,2.5,4.9,97,0.00,,,0.00,WSDL version 427,2013-01-01 11:18:00,
2013-01-01 05:23:00,34.0,33.1,30.06,NNE,23,3.2,5.4,97,0.00,,,0.00,WSDL version 427,2013-01-01 11:23:00,
2013-01-01 05:28:00,33.9,33.0,30.06,NE,41,2.4,5.8,97,0.00,,,0.00,WSDL version 427,2013-01-01 11:28:00,
2013-01-01 05:33:00,33.8,32.9,30.06,NE,48,4.8,6.3,96,0.00,,,0.00,WSDL version 427,2013-01-01 11:33:00,
2013-01-01 05:38:00,33.8,32.7,30.06,NE,41,2.7,6.3,96,0.00,,,0.00,WSDL version 427,2013-01-01 11:38:00,
2013-01-01 05:43:00,33.8,32.7,30.06,NE,43,3.2,6.3,97,0.00,,,0.00,WSDL version 427,2013-01-01 11:43:00,
2013-01-01 05:48:00,33.8,33.0,30.06,NE,53,3.3,6.0,97,0.00,,,0.00,WSDL version 427,2013-01-01 11:48:00,
2013-01-01 05:53:00,33.8,33.0,30.12,ENE,74,3.8,6.0,97,0.00,,,0.00,WSDL version 427,2013-01-01 11:53:00,
2013-01-01 05:58:00,33.8,33.0,30.12,NNE,20,3.4,5.8,97,0.00,,,0.00,WSDL version 427,2013-01-01 11:58:00,
2013-01-01 06:03:00,33.8,33.0,30.12,NE,43,3.0,6.3,97,0.00,,,0.00,WSDL version 427,2013-01-01 12:03:00,
2013-01-01 06:08:00,33.8,33.0,30.12,NNE,20,2.8,6.3,97,0.00,,,0.00,WSDL version 427,2013-01-01 12:08:00,
2013-01-01 06:13:00,33.8,33.0,30.12,NNE,20,3.0,6.9,97,0.00,,,0.00,WSDL version 427,2013-01-01 12:13:00,
2013-01-01 06:18:00,33.8,32.7,30.12,ENE,58,2.3,6.9,96,0.00,,,0.00,WSDL version 427,2013-01-01 12:18:00,
2013-01-01 06:23:00,33.8,32.7,30.12,North,354,3.7,6.5,96,0.00,,,0.00,WSDL version 427,2013-01-01 12:23:00,
2013-01-01 06:28:00,33.7,32.7,30.12,NNE,18,2.9,6.5,96,0.00,,,0.00,WSDL version 427,2013-01-01 12:28:00,
2013-01-01 06:33:00,33.6,32.8,30.12,NNE,33,3.9,7.4,97,0.00,,,0.00,WSDL version 427,2013-01-01 12:33:00,
2013-01-01 06:38:00,33.6,32.6,30.12,NE,47,4.7,7.4,96,0.00,,,0.00,WSDL version 427,2013-01-01 12:38:00,
2013-01-01 06:43:00,33.5,32.4,30.12,North,5,3.0,6.5,96,0.00,,,0.00,WSDL version 427,2013-01-01 12:43:00,
2013-01-01 06:48:00,33.4,32.5,30.12,NNW,335,2.7,5.4,97,0.00,,,0.00,WSDL version 427,2013-01-01 12:48:00,
2013-01-01 06:53:00,33.4,32.6,30.12,NNE,15,3.1,4.9,97,0.00,,,0.00,WSDL version 427,2013-01-01 12:53:00,
2013-01-01 06:58:00,33.4,32.6,30.12,North,5,2.9,7.2,97,0.00,,,0.00,WSDL version 427,2013-01-01 12:58:00,
2013-01-01 07:03:00,33.4,32.6,30.12,North,8,3.1,7.2,97,0.00,,,0.00,WSDL version 427,2013-01-01 13:03:00,
2013-01-01 07:08:00,33.3,32.5,30.12,North,2,4.3,7.4,97,0.00,,,0.00,WSDL version 427,2013-01-01 13:08:00,
2013-01-01 07:13:00,33.2,32.3,30.12,NNE,14,4.7,7.4,96,0.00,,,0.00,WSDL version 427,2013-01-01 13:13:00,
2013-01-01 07:18:00,33.1,32.0,30.12,NE,47,3.9,7.4,96,0.00,,,0.00,WSDL version 427,2013-01-01 13:18:00,
2013-01-01 07:23:00,32.9,31.8,30.09,NNE,25,4.7,10.3,96,0.00,,,0.00,WSDL version 427,2013-01-01 13:23:00,
2013-01-01 07:28:00,32.8,31.6,30.09,North,350,3.8,10.3,96,0.00,,,0.00,WSDL version 427,2013-01-01 13:28:00,
2013-01-01 07:33:00,32.7,31.6,30.09,NNE,20,5.0,8.1,96,0.00,,,0.00,WSDL version 427,2013-01-01 13:33:00,
2013-01-01 07:38:00,32.7,31.6,30.15,NNE,20,3.7,8.1,96,0.00,,,0.00,WSDL version 427,2013-01-01 13:38:00,
2013-01-01 07:43:00,32.7,31.5,30.15,North,5,3.0,5.6,96,0.00,,,0.00,WSDL version 427,2013-01-01 13:43:00,
2013-01-01 07:48:00,32.5,31.4,30.15,North,356,3.8,6.3,96,0.00,,,0.00,WSDL version 427,2013-01-01 13:48:00,
2013-01-01 07:53:00,32.5,31.1,30.15,NE,47,3.4,6.3,94,0.00,,,0.00,WSDL version 427,2013-01-01 13:53:00,
2013-01-01 07:58:00,32.5,31.1,30.15,NE,36,3.5,6.3,94,0.00,,,0.00,WSDL version 427,2013-01-01 13:58:00,
2013-01-01 08:03:00,32.5,31.1,30.15,NE,41,4.2,6.5,94,0.00,,,0.00,WSDL version 427,2013-01-01 14:03:00,
2013-01-01 08:08:00,32.5,31.1,30.12,NNE,23,3.8,6.5,94,0.00,,,0.00,WSDL version 427,2013-01-01 14:08:00,
2013-01-01 08:13:00,32.4,30.9,30.12,NNE,18,5.0,7.6,94,0.00,,,0.00,WSDL version 427,2013-01-01 14:13:00,
2013-01-01 08:18:00,32.4,30.9,30.12,NNE,27,4.1,7.6,94,0.00,,,0.00,WSDL version 427,2013-01-01 14:18:00,
2013-01-01 08:23:00,32.4,30.9,30.09,North,10,4.4,6.3,94,0.00,,,0.00,WSDL version 427,2013-01-01 14:23:00,
2013-01-01 08:28:00,32.4,30.9,30.09,NNE,29,4.5,7.8,94,0.00,,,0.00,WSDL version 427,2013-01-01 14:28:00,
2013-01-01 08:33:00,32.4,30.9,30.09,NNE,33,5.2,8.1,93,0.00,,,0.00,WSDL version 427,2013-01-01 14:33:00,
2013-01-01 08:38:00,32.2,30.5,30.12,NE,39,4.2,10.5,93,0.00,,,0.00,WSDL version 427,2013-01-01 14:38:00,
2013-01-01 08:43:00,32.2,30.2,30.12,NE,54,3.7,10.5,92,0.00,,,0.00,WSDL version 427,2013-01-01 14:43:00,
2013-01-01 08:48:00,32.2,30.2,30.12,North,358,3.1,6.3,92,0.00,,,0.00,WSDL version 427,2013-01-01 14:48:00,
2013-01-01 08:53:00,32.2,29.9,30.12,North,11,4.8,8.7,91,0.00,,,0.00,WSDL version 427,2013-01-01 14:53:00,
2013-01-01 08:58:00,32.2,29.7,30.12,North,4,5.2,8.7,90,0.00,,,0.00,WSDL version 427,2013-01-01 14:58:00,
2013-01-01 09:03:00,32.2,29.6,30.12,NNE,29,4.5,8.7,90,0.00,,,0.00,WSDL version 427,2013-01-01 15:03:00,
2013-01-01 09:08:00,32.0,29.7,30.15,NNE,20,3.3,10.1,90,0.00,,,0.00,WSDL version 427,2013-01-01 15:08:00,
2013-01-01 09:13:00,31.9,29.4,30.15,NNE,15,5.9,10.1,89,0.00,,,0.00,WSDL version 427,2013-01-01 15:13:00,
2013-01-01 09:18:00,31.6,29.1,30.15,North,356,4.9,10.1,89,0.00,,,0.00,WSDL version 427,2013-01-01 15:18:00,
2013-01-01 09:23:00,31.4,28.9,30.18,NNW,344,6.2,10.3,89,0.00,,,0.00,WSDL version 427,2013-01-01 15:23:00,
2013-01-01 09:28:00,31.2,28.4,30.18,North,3,5.4,10.3,88,0.00,,,0.00,WSDL version 427,2013-01-01 15:28:00,
2013-01-01 09:33:00,31.1,28.3,30.18,North,6,4.2,9.8,88,0.00,,,0.00,WSDL version 427,2013-01-01 15:33:00,
2013-01-01 09:38:00,31.1,28.3,30.18,NE,40,4.3,9.8,88,0.00,,,0.00,WSDL version 427,2013-01-01 15:38:00,
2013-01-01 09:43:00,31.0,28.2,30.18,NNE,15,4.7,6.7,88,0.00,,,0.00,WSDL version 427,2013-01-01 15:43:00,
2013-01-01 09:48:00,30.9,28.1,30.18,NNE,25,3.1,6.7,88,0.00,,,0.00,WSDL version 427,2013-01-01 15:48:00,
2013-01-01 09:53:00,30.9,28.1,30.18,North,10,6.2,8.7,88,0.00,,,0.00,WSDL version 427,2013-01-01 15:53:00,
2013-01-01 09:58:00,30.7,27.9,30.18,North,360,5.1,8.7,88,0.00,,,0.00,WSDL version 427,2013-01-01 15:58:00,
2013-01-01 10:03:00,30.6,27.7,30.18,North,2,3.7,10.7,88,0.00,,,0.00,WSDL version 427,2013-01-01 16:03:00,
2013-01-01 10:08:00,30.6,27.7,30.18,North,352,6.3,10.7,88,0.00,,,0.00,WSDL version 427,2013-01-01 16:08:00,
2013-01-01 10:13:00,30.5,27.5,30.18,NNE,25,4.9,10.1,87,0.00,,,0.00,WSDL version 427,2013-01-01 16:13:00,
2013-01-01 10:18:00,30.4,27.3,30.18,NNW,340,5.0,10.1,87,0.00,,,0.00,WSDL version 427,2013-01-01 16:18:00,
2013-01-01 10:23:00,30.3,27.2,30.18,North,360,6.0,9.8,87,0.00,,,0.00,WSDL version 427,2013-01-01 16:23:00,
2013-01-01 10:28:00,30.2,27.1,30.18,NNW,340,4.4,9.8,87,0.00,,,0.00,WSDL version 427,2013-01-01 16:28:00,
2013-01-01 10:33:00,30.2,27.1,30.18,North,358,4.4,8.1,87,0.00,,,0.00,WSDL version 427,2013-01-01 16:33:00,
2013-01-01 10:38:00,30.2,26.9,30.18,North,356,5.6,8.7,86,0.00,,,0.00,WSDL version 427,2013-01-01 16:38:00,
2013-01-01 10:43:00,30.2,26.8,30.18,NNW,342,4.3,8.7,84,0.00,,,0.00,WSDL version 427,2013-01-01 16:43:00,
2013-01-01 10:48:00,30.2,26.7,30.18,North,356,4.1,7.8,86,0.00,,,0.00,WSDL version 427,2013-01-01 16:48:00,
2013-01-01 10:53:00,30.2,26.7,30.18,NNW,330,3.9,6.5,84,0.00,,,0.00,WSDL version 427,2013-01-01 16:53:00,
2013-01-01 10:58:00,30.2,26.6,30.18,North,7,4.2,6.5,84,0.00,,,0.00,WSDL version 427,2013-01-01 16:58:00,
2013-01-01 11:03:00,30.2,26.4,30.18,North,358,5.7,8.5,83,0.00,,,0.00,WSDL version 427,2013-01-01 17:03:00,
2013-01-01 11:08:00,30.0,26.0,30.18,North,360,4.3,8.5,82,0.00,,,0.00,WSDL version 427,2013-01-01 17:08:00,
2013-01-01 11:13:00,29.9,25.7,30.18,North,8,5.3,8.9,82,0.00,,,0.00,WSDL version 427,2013-01-01 17:13:00,
2013-01-01 11:18:00,29.8,25.5,30.18,North,358,6.6,8.9,81,0.00,,,0.00,WSDL version 427,2013-01-01 17:18:00,
2013-01-01 11:23:00,29.7,25.0,30.18,North,356,4.1,8.7,81,0.00,,,0.00,WSDL version 427,2013-01-01 17:23:00,
2013-01-01 11:28:00,29.6,24.9,30.18,NNE,21,4.5,8.7,80,0.00,,,0.00,WSDL version 427,2013-01-01 17:28:00,
2013-01-01 11:33:00,29.5,24.7,30.18,North,360,5.7,8.7,80,0.00,,,0.00,WSDL version 427,2013-01-01 17:33:00,
2013-01-01 11:38:00,29.5,24.7,30.18,North,358,3.9,8.7,80,0.00,,,0.00,WSDL version 427,2013-01-01 17:38:00,
2013-01-01 11:43:00,29.7,24.9,30.18,North,356,4.9,7.4,80,0.00,,,0.00,WSDL version 427,2013-01-01 17:43:00,
2013-01-01 11:48:00,29.7,24.9,30.18,NNE,18,2.8,6.9,80,0.00,,,0.00,WSDL version 427,2013-01-01 17:48:00,
2013-01-01 11:53:00,29.8,25.0,30.18,NNW,338,3.6,6.3,80,0.00,,,0.00,WSDL version 427,2013-01-01 17:53:00,
2013-01-01 11:58:00,29.8,25.1,30.18,NNW,335,3.6,6.3,80,0.00,,,0.00,WSDL version 427,2013-01-01 17:58:00,
2013-01-01 12:03:00,29.8,25.1,30.18,North,354,3.9,7.6,80,0.00,,,0.00,WSDL version 427,2013-01-01 18:03:00,
2013-01-01 12:08:00,29.8,25.1,30.18,NW,320,3.5,7.6,80,0.00,,,0.00,WSDL version 427,2013-01-01 18:08:00,
2013-01-01 12:13:00,29.8,25.1,30.18,NNW,344,4.3,7.4,80,0.00,,,0.00,WSDL version 427,2013-01-01 18:13:00,
2013-01-01 12:18:00,29.8,25.1,30.18,North,360,4.4,7.4,80,0.00,,,0.00,WSDL version 427,2013-01-01 18:18:00,
2013-01-01 12:23:00,29.9,25.1,30.15,NW,309,3.6,7.2,80,0.00,,,0.00,WSDL version 427,2013-01-01 18:23:00,
2013-01-01 12:28:00,29.8,24.8,30.15,North,356,5.3,8.5,79,0.00,,,0.00,WSDL version 427,2013-01-01 18:28:00,
2013-01-01 12:33:00,29.9,24.9,30.15,North,7,4.0,8.5,79,0.00,,,0.00,WSDL version 427,2013-01-01 18:33:00,
2013-01-01 12:38:00,30.0,25.0,30.18,North,360,5.1,7.8,79,0.00,,,0.00,WSDL version 427,2013-01-01 18:38:00,
2013-01-01 12:43:00,30.0,25.0,30.18,North,360,4.2,7.2,79,0.00,,,0.00,WSDL version 427,2013-01-01 18:43:00,
2013-01-01 12:48:00,29.9,24.8,30.18,NNW,338,4.9,6.5,78,0.00,,,0.00,WSDL version 427,2013-01-01 18:48:00,
2013-01-01 12:53:00,29.9,24.6,30.15,NNW,333,4.1,7.2,78,0.00,,,0.00,WSDL version 427,2013-01-01 18:53:00,
2013-01-01 12:58:00,30.0,24.7,30.15,NNE,13,3.4,7.2,78,0.00,,,0.00,WSDL version 427,2013-01-01 18:58:00,
2013-01-01 13:03:00,29.9,24.6,30.15,NNW,335,4.1,8.7,78,0.00,,,0.00,WSDL version 427,2013-01-01 19:03:00,
2013-01-01 13:08:00,29.8,24.5,30.18,North,349,5.5,8.7,78,0.00,,,0.00,WSDL version 427,2013-01-01 19:08:00,
2013-01-01 13:13:00,29.7,24.1,30.18,North,6,4.9,9.8,77,0.00,,,0.00,WSDL version 427,2013-01-01 19:13:00,
2013-01-01 13:18:00,29.7,24.1,30.18,North,351,3.9,9.8,77,0.00,,,0.00,WSDL version 427,2013-01-01 19:18:00,
2013-01-01 13:23:00,29.7,24.1,30.18,NNW,340,5.5,8.1,77,0.00,,,0.00,WSDL version 427,2013-01-01 19:23:00,
2013-01-01 13:28:00,29.7,24.1,30.18,North,353,6.3,8.7,77,0.00,,,0.00,WSDL version 427,2013-01-01 19:28:00,
2013-01-01 13:33:00,29.7,24.1,30.18,NNW,347,4.2,8.7,77,0.00,,,0.00,WSDL version 427,2013-01-01 19:33:00,
2013-01-01 13:38:00,29.7,24.1,30.18,NNW,345,5.2,7.2,77,0.00,,,0.00,WSDL version 427,2013-01-01 19:38:00,
2013-01-01 13:43:00,29.7,24.1,30.18,NNE,14,4.8,7.4,77,0.00,,,0.00,WSDL version 427,2013-01-01 19:43:00,
2013-01-01 13:48:00,29.5,23.8,30.18,North,350,5.7,8.1,76,0.00,,,0.00,WSDL version 427,2013-01-01 19:48:00,
2013-01-01 13:53:00,29.7,24.1,30.18,NNW,333,4.2,8.1,77,0.00,,,0.00,WSDL version 427,2013-01-01 19:53:00,
2013-01-01 13:58:00,29.8,24.2,30.18,North,355,4.3,7.6,77,0.00,,,0.00,WSDL version 427,2013-01-01 19:58:00,
2013-01-01 14:03:00,29.8,24.2,30.18,NNW,327,5.2,8.5,77,0.00,,,0.00,WSDL version 427,2013-01-01 20:03:00,
2013-01-01 14:08:00,29.8,24.2,30.18,North,354,5.2,10.1,77,0.00,,,0.00,WSDL version 427,2013-01-01 20:08:00,
2013-01-01 14:13:00,29.6,23.8,30.18,NNW,343,4.5,10.1,76,0.00,,,0.00,WSDL version 427,2013-01-01 20:13:00,
2013-01-01 14:18:00,29.5,23.6,30.18,North,353,3.9,9.2,76,0.00,,,0.00,WSDL version 427,2013-01-01 20:18:00,
2013-01-01 14:23:00,29.5,23.6,30.18,NW,326,5.9,10.7,76,0.00,,,0.00,WSDL version 427,2013-01-01 20:23:00,
2013-01-01 14:28:00,29.3,23.3,30.18,NNW,329,4.7,10.7,75,0.00,,,0.00,WSDL version 427,2013-01-01 20:28:00,
2013-01-01 14:33:00,29.3,23.3,30.18,North,353,4.8,7.4,75,0.00,,,0.00,WSDL version 427,2013-01-01 20:33:00,
2013-01-01 14:38:00,29.2,23.0,30.21,NNE,12,5.8,8.5,75,0.00,,,0.00,WSDL version 427,2013-01-01 20:38:00,
2013-01-01 14:43:00,29.1,23.0,30.21,North,358,5.1,8.5,75,0.00,,,0.00,WSDL version 427,2013-01-01 20:43:00,
2013-01-01 14:48:00,28.9,22.6,30.21,NNW,333,5.5,10.7,74,0.00,,,0.00,WSDL version 427,2013-01-01 20:48:00,
2013-01-01 14:53:00,28.9,22.5,30.18,North,351,3.8,10.7,74,0.00,,,0.00,WSDL version 427,2013-01-01 20:53:00,
2013-01-01 14:58:00,28.9,22.5,30.18,NNW,335,5.7,8.7,74,0.00,,,0.00,WSDL version 427,2013-01-01 20:58:00,
2013-01-01 15:03:00,28.8,22.5,30.18,North,351,3.3,7.8,75,0.00,,,0.00,WSDL version 427,2013-01-01 21:03:00,
2013-01-01 15:08:00,28.9,22.7,30.15,North,8,4.4,7.8,75,0.00,,,0.00,WSDL version 427,2013-01-01 21:08:00,
2013-01-01 15:13:00,28.8,22.7,30.15,NNW,335,6.9,7.8,75,0.00,,,0.00,WSDL version 427,2013-01-01 21:13:00,
2013-01-01 15:18:00,28.6,22.3,30.15,NNW,344,6.6,10.5,74,0.00,,,0.00,WSDL version 427,2013-01-01 21:18:00,
2013-01-01 15:23:00,28.6,22.1,30.18,NW,319,5.0,10.5,74,0.00,,,0.00,WSDL version 427,2013-01-01 21:23:00,
2013-01-01 15:28:00,28.4,22.0,30.18,North,355,5.0,10.5,74,0.00,,,0.00,WSDL version 427,2013-01-01 21:28:00,
2013-01-01 15:33:00,28.4,22.0,30.18,North,360,5.3,10.5,74,0.00,,,0.00,WSDL version 427,2013-01-01 21:33:00,
2013-01-01 15:38:00,28.4,22.0,30.18,NNE,19,4.0,10.3,74,0.00,,,0.00,WSDL version 427,2013-01-01 21:38:00,
2013-01-01 15:43:00,28.3,21.7,30.18,NNW,347,5.3,9.6,73,0.00,,,0.00,WSDL version 427,2013-01-01 21:43:00,
2013-01-01 15:48:00,28.1,21.4,30.18,North,353,5.4,9.6,73,0.00,,,0.00,WSDL version 427,2013-01-01 21:48:00,
2013-01-01 15:53:00,28.0,21.4,30.18,North,7,4.3,8.5,73,0.00,,,0.00,WSDL version 427,2013-01-01 21:53:00,
2013-01-01 15:58:00,28.0,21.4,30.18,NW,317,4.1,8.5,73,0.00,,,0.00,WSDL version 427,2013-01-01 21:58:00,
2013-01-01 16:03:00,28.0,21.4,30.18,North,356,4.7,6.5,73,0.00,,,0.00,WSDL version 427,2013-01-01 22:03:00,
2013-01-01 16:08:00,28.2,21.5,30.15,NNW,330,4.1,7.6,73,0.00,,,0.00,WSDL version 427,2013-01-01 22:08:00,
2013-01-01 16:13:00,28.2,21.5,30.15,North,350,3.4,7.6,73,0.00,,,0.00,WSDL version 427,2013-01-01 22:13:00,
2013-01-01 16:18:00,28.1,21.4,30.15,North,351,5.2,6.9,73,0.00,,,0.00,WSDL version 427,2013-01-01 22:18:00,
2013-01-01 16:23:00,28.0,21.1,30.18,NNW,345,4.7,8.1,72,0.00,,,0.00,WSDL version 427,2013-01-01 22:23:00,
2013-01-01 16:28:00,28.0,21.3,30.18,North,358,3.7,8.1,73,0.00,,,0.00,WSDL version 427,2013-01-01 22:28:00,
2013-01-01 16:33:00,28.0,21.4,30.18,NNW,342,3.2,6.9,73,0.00,,,0.00,WSDL version 427,2013-01-01 22:33:00,
2013-01-01 16:38:00,28.0,21.4,30.18,North,349,5.2,8.1,73,0.00,,,0.00,WSDL version 427,2013-01-01 22:38:00,
2013-01-01 16:43:00,27.9,21.3,30.18,NNW,344,3.8,8.1,73,0.00,,,0.00,WSDL version 427,2013-01-01 22:43:00,
2013-01-01 16:48:00,27.9,21.2,30.18,NNW,346,3.6,6.5,73,0.00,,,0.00,WSDL version 427,2013-01-01 22:48:00,
2013-01-01 16:53:00,27.9,21.2,30.18,North,9,4.0,6.5,73,0.00,,,0.00,WSDL version 427,2013-01-01 22:53:00,
2013-01-01 16:58:00,27.9,21.2,30.18,NNW,327,3.4,6.5,73,0.00,,,0.00,WSDL version 427,2013-01-01 22:58:00,
2013-01-01 17:03:00,27.9,21.2,30.18,NNW,335,2.4,4.9,73,0.00,,,0.00,WSDL version 427,2013-01-01 23:03:00,
2013-01-01 17:08:00,27.9,21.2,30.21,WNW,288,3.7,4.9,73,0.00,,,0.00,WSDL version 427,2013-01-01 23:08:00,
2013-01-01 17:13:00,27.7,21.1,30.21,North,2,3.4,4.9,73,0.00,,,0.00,WSDL version 427,2013-01-01 23:13:00,
2013-01-01 17:18:00,27.7,21.0,30.21,WNW,295,2.9,4.7,73,0.00,,,0.00,WSDL version 427,2013-01-01 23:18:00,
2013-01-01 17:23:00,27.5,20.8,30.18,NNW,329,3.2,5.8,73,0.00,,,0.00,WSDL version 427,2013-01-01 23:23:00,
2013-01-01 17:28:00,27.5,20.8,30.18,North,7,2.4,5.8,73,0.00,,,0.00,WSDL version 427,2013-01-01 23:28:00,
2013-01-01 17:33:00,27.4,20.8,30.18,NNW,340,3.0,4.9,73,0.00,,,0.00,WSDL version 427,2013-01-01 23:33:00,
2013-01-01 17:38:00,27.3,20.7,30.18,NW,325,2.9,4.3,73,0.00,,,0.00,WSDL version 427,2013-01-01 23:38:00,
2013-01-01 17:43:00,27.2,20.5,30.18,WNW,293,2.7,5.8,73,0.00,,,0.00,WSDL version 427,2013-01-01 23:43:00,
2013-01-01 17:48:00,27.1,20.5,30.18,WNW,293,0.5,5.8,73,0.00,,,0.00,WSDL version 427,2013-01-01 23:48:00,
2013-01-01 17:53:00,27.0,20.3,30.21,NNW,327,2.1,5.4,73,0.00,,,0.00,WSDL version 427,2013-01-01 23:53:00,
2013-01-01 17:58:00,26.9,20.2,30.21,NNW,331,2.9,5.4,73,0.00,,,0.00,WSDL version 427,2013-01-01 23:58:00,
2013-01-01 18:03:00,26.7,20.0,30.21,NNW,348,2.6,4.5,73,-99.99,,,-99.99,WSDL version 427,2013-01-02 00:03:00,
2013-01-01 18:08:00,26.5,19.9,30.21,NNW,346,2.5,3.4,73,0.00,,,0.00,WSDL version 427,2013-01-02 00:08:00,
2013-01-01 18:13:00,26.3,19.7,30.21,North,349,3.0,3.8,73,0.00,,,0.00,WSDL version 427,2013-01-02 00:13:00,
2013-01-01 18:18:00,26.2,19.8,30.21,North,2,3.0,4.3,74,0.00,,,0.00,WSDL version 427,2013-01-02 00:18:00,
2013-01-01 18:23:00,26.1,19.7,30.18,North,353,2.9,4.3,74,0.00,,,0.00,WSDL version 427,2013-01-02 00:23:00,
2013-01-01 18:28:00,26.0,19.6,30.18,NNW,344,2.5,3.8,74,0.00,,,0.00,WSDL version 427,2013-01-02 00:28:00,
2013-01-01 18:38:00,25.7,19.4,30.21,NW,310,2.0,3.4,74,0.00,,,0.00,WSDL version 427,2013-01-02 00:38:00,
2013-01-01 18:43:00,25.5,19.2,30.21,North,6,1.7,3.4,74,0.00,,,0.00,WSDL version 427,2013-01-02 00:43:00,
2013-01-01 18:48:00,25.4,19.1,30.21,North,354,1.9,3.4,74,0.00,,,0.00,WSDL version 427,2013-01-02 00:48:00,
2013-01-01 18:53:00,25.3,19.0,30.21,NNW,338,2.4,4.0,74,0.00,,,0.00,WSDL version 427,2013-01-02 00:53:00,
2013-01-01 18:58:00,25.2,18.9,30.21,North,11,2.2,4.0,74,0.00,,,0.00,WSDL version 427,2013-01-02 00:58:00,
2013-01-01 19:03:00,25.1,18.8,30.21,North,356,2.7,4.0,74,0.00,,,0.00,WSDL version 427,2013-01-02 01:03:00,
2013-01-01 19:08:00,25.0,18.7,30.21,NNW,346,2.3,3.8,74,0.00,,,0.00,WSDL version 427,2013-01-02 01:08:00,
2013-01-01 19:13:00,24.9,18.6,30.21,NNW,340,1.3,3.8,74,0.00,,,0.00,WSDL version 427,2013-01-02 01:13:00,
2013-01-01 19:18:00,24.8,18.6,30.21,NNW,334,0.5,3.6,75,0.00,,,0.00,WSDL version 427,2013-01-02 01:18:00,
2013-01-01 19:23:00,24.8,18.7,30.21,NW,315,1.7,2.7,75,0.00,,,0.00,WSDL version 427,2013-01-02 01:23:00,
2013-01-01 19:28:00,24.6,18.6,30.21,NW,326,1.7,3.4,75,0.00,,,0.00,WSDL version 427,2013-01-02 01:28:00,
2013-01-01 19:33:00,24.5,18.4,30.21,NW,324,1.4,3.4,75,0.00,,,0.00,WSDL version 427,2013-01-02 01:33:00,
2013-01-01 19:38:00,24.4,18.4,30.21,NW,308,2.0,3.4,75,0.00,,,0.00,WSDL version 427,2013-01-02 01:38:00,
2013-01-01 19:43:00,24.4,18.3,30.21,NW,313,2.7,4.0,75,0.00,,,0.00,WSDL version 427,2013-01-02 01:43:00,
2013-01-01 19:48:00,24.3,18.2,30.21,WNW,301,2.3,4.0,75,0.00,,,0.00,WSDL version 427,2013-01-02 01:48:00,
2013-01-01 19:53:00,24.2,18.2,30.24,WNW,293,2.8,4.0,75,0.00,,,0.00,WSDL version 427,2013-01-02 01:53:00,
2013-01-01 19:58:00,24.1,18.0,30.24,WNW,302,2.9,4.0,74,0.00,,,0.00,WSDL version 427,2013-01-02 01:58:00,
2013-01-01 20:03:00,24.0,17.7,30.24,WNW,301,3.4,4.3,74,0.00,,,0.00,WSDL version 427,2013-01-02 02:03:00,
2013-01-01 20:08:00,23.9,17.6,30.24,WNW,300,2.2,4.3,74,0.00,,,0.00,WSDL version 427,2013-01-02 02:08:00,
2013-01-01 20:13:00,23.9,17.8,30.24,WNW,299,2.3,4.0,75,0.00,,,0.00,WSDL version 427,2013-01-02 02:13:00,
2013-01-01 20:18:00,23.8,17.5,30.24,WNW,294,2.6,4.3,74,0.00,,,0.00,WSDL version 427,2013-01-02 02:18:00,
2013-01-01 20:23:00,23.6,17.4,30.21,NW,322,2.5,4.3,74,0.00,,,0.00,WSDL version 427,2013-01-02 02:23:00,
2013-01-01 20:28:00,23.5,17.3,30.21,WNW,297,2.2,4.0,74,0.00,,,0.00,WSDL version 427,2013-01-02 02:28:00,
2013-01-01 20:33:00,23.5,17.3,30.21,NW,315,3.3,6.9,74,0.00,,,0.00,WSDL version 427,2013-01-02 02:33:00,
2013-01-01 20:38:00,23.4,17.1,30.24,NNW,342,2.5,6.9,74,0.00,,,0.00,WSDL version 427,2013-01-02 02:38:00,
2013-01-01 20:43:00,23.4,17.1,30.24,West,270,2.9,4.0,74,0.00,,,0.00,WSDL version 427,2013-01-02 02:43:00,
2013-01-01 20:48:00,23.2,16.9,30.24,NNW,336,2.8,4.3,74,0.00,,,0.00,WSDL version 427,2013-01-02 02:48:00,
2013-01-01 20:53:00,23.2,16.9,30.24,NNW,340,2.9,5.6,74,0.00,,,0.00,WSDL version 427,2013-01-02 02:53:00,
2013-01-01 20:58:00,23.0,16.8,30.24,NNW,343,2.5,5.6,74,0.00,,,0.00,WSDL version 427,2013-01-02 02:58:00,
2013-01-01 21:03:00,23.0,16.7,30.24,NNW,339,1.6,4.9,74,0.00,,,0.00,WSDL version 427,2013-01-02 03:03:00,
2013-01-01 21:08:00,23.0,16.7,30.21,NNE,14,2.0,4.7,74,0.00,,,0.00,WSDL version 427,2013-01-02 03:08:00,
2013-01-01 21:13:00,22.8,16.6,30.21,NNE,25,2.2,4.7,74,0.00,,,0.00,WSDL version 427,2013-01-02 03:13:00,
2013-01-01 21:18:00,22.8,16.5,30.21,NNE,16,3.2,5.4,73,0.00,,,0.00,WSDL version 427,2013-01-02 03:18:00,
2013-01-01 21:23:00,22.8,16.2,30.21,NNE,14,2.8,5.4,73,0.00,,,0.00,WSDL version 427,2013-01-02 03:23:00,
2013-01-01 21:28:00,22.6,16.2,30.21,NNE,14,2.8,4.9,74,0.00,,,0.00,WSDL version 427,2013-01-02 03:28:00,
2013-01-01 21:33:00,22.6,16.1,30.21,NNW,342,3.0,4.9,73,0.00,,,0.00,WSDL version 427,2013-01-02 03:33:00,
2013-01-01 21:40:00,22.5,16.2,30.21,North,351,2.6,4.3,74,0.00,,,0.00,WSDL version 427,2013-01-02 03:40:00,
2013-01-01 21:45:00,22.5,16.2,30.21,NNW,346,2.9,4.9,74,0.00,,,0.00,WSDL version 427,2013-01-02 03:45:00,
2013-01-01 21:50:00,22.5,16.1,30.21,North,353,3.9,5.6,73,0.00,,,0.00,WSDL version 427,2013-01-02 03:50:00,
2013-01-01 21:55:00,22.3,15.8,30.21,North,352,2.5,5.6,73,0.00,,,0.00,WSDL version 427,2013-01-02 03:55:00,
2013-01-01 22:00:00,22.3,15.8,30.21,NW,313,1.4,3.8,73,0.00,,,0.00,WSDL version 427,2013-01-02 04:00:00,
2013-01-01 22:05:00,22.3,15.9,30.21,NW,322,1.7,3.8,74,0.00,,,0.00,WSDL version 427,2013-01-02 04:05:00,
2013-01-01 22:10:00,22.1,15.7,30.21,NNW,340,3.0,3.8,73,0.00,,,0.00,WSDL version 427,2013-01-02 04:10:00,
2013-01-01 22:15:00,22.0,15.5,30.21,NNW,338,2.2,4.3,73,0.00,,,0.00,WSDL version 427,2013-01-02 04:15:00,
2013-01-01 22:20:00,21.9,15.4,30.21,WNW,301,2.0,4.3,73,0.00,,,0.00,WSDL version 427,2013-01-02 04:20:00,
2013-01-01 22:25:00,21.9,15.4,30.24,NW,305,2.2,3.8,73,0.00,,,0.00,WSDL version 427,2013-01-02 04:25:00,
2013-01-01 22:30:00,21.9,15.4,30.24,WNW,293,1.1,3.8,73,0.00,,,0.00,WSDL version 427,2013-01-02 04:30:00,
2013-01-01 22:35:00,21.9,15.4,30.24,WNW,293,0.0,3.1,73,0.00,,,0.00,WSDL version 427,2013-01-02 04:35:00,
2013-01-01 22:40:00,21.9,15.4,30.24,NW,305,1.9,2.9,73,0.00,,,0.00,WSDL version 427,2013-01-02 04:40:00,
2013-01-01 22:45:00,21.7,15.2,30.24,NNW,331,1.1,3.8,73,0.00,,,0.00,WSDL version 427,2013-01-02 04:45:00,
2013-01-01 22:50:00,21.7,15.2,30.24,WNW,293,0.4,3.8,73,0.00,,,0.00,WSDL version 427,2013-01-02 04:50:00,
2013-01-01 22:55:00,21.6,15.1,30.24,WNW,293,0.8,3.8,73,0.00,,,0.00,WSDL version 427,2013-01-02 04:55:00,
2013-01-01 23:00:00,21.6,15.1,30.24,WNW,293,1.3,2.5,73,0.00,,,0.00,WSDL version 427,2013-01-02 05:00:00,
2013-01-01 23:10:00,21.4,14.6,30.27,ENE,68,0.8,2.2,72,0.00,,,0.00,WSDL version 427,2013-01-02 05:10:00,
2013-01-01 23:20:00,21.4,14.6,30.27,WNW,284,0.0,2.0,72,0.00,,,0.00,WSDL version 427,2013-01-02 05:20:00,
2013-01-01 23:25:00,21.3,14.7,30.24,West,270,0.0,0.0,73,0.00,,,0.00,WSDL version 427,2013-01-02 05:25:00,
2013-01-01 23:30:00,21.2,14.7,30.24,West,270,0.0,0.0,73,0.00,,,0.00,WSDL version 427,2013-01-02 05:30:00,
2013-01-01 23:40:00,21.0,14.3,30.24,West,270,0.0,0.0,72,0.00,,,0.00,WSDL version 427,2013-01-02 05:40:00,
2013-01-01 23:45:00,20.9,14.4,30.24,West,270,0.0,0.0,73,0.00,,,0.00,WSDL version 427,2013-01-02 05:45:00,
2013-01-01 23:50:00,20.8,14.3,30.24,West,270,0.0,0.0,73,0.00,,,0.00,WSDL version 427,2013-01-02 05:50:00,
2013-01-01 23:55:00,20.7,14.2,30.21,West,270,0.0,0.0,73,0.00,,,0.00,WSDL version 427,2013-01-02 05:55:00,